Time;durP1;ratioP1;P1;durP2;ratioP2;P2;SDS_P1;SDS_P2;PMS_P1;PMS_P2;Temp;Humidity;BMP_temperature;BMP_pressure;BME280_temperature;BME280_humidity;BME280_pressure;Samples;Min_cycle;Max_cycle;Signal;HPM_P1;HPM_P2
2023/03/19 00:00:57;;;;;;;3.40;2.93;;;14.80;90.50;;;;;;5051354;28;20472;-83
2023/03/19 00:03:24;;;;;;;6.60;3.23;;;14.90;90.70;;;;;;5047400;28;20522;-83
2023/03/19 00:05:52;;;;;;;4.07;3.10;;;15.10;90.30;;;;;;5044733;28;20484;-83
2023/03/19 00:08:19;;;;;;;6.13;3.57;;;15.00;90.10;;;;;;5043573;28;20460;-83
2023/03/19 00:10:47;;;;;;;6.33;3.60;;;14.80;90.40;;;;;;5055158;28;20487;-81
2023/03/19 00:13:17;;;;;;;5.90;3.80;;;14.70;90.60;;;;;;5054054;28;20447;-81
2023/03/19 00:15:45;;;;;;;5.23;3.90;;;14.90;90.80;;;;;;5050219;28;20457;-83
2023/03/19 00:18:12;;;;;;;6.83;4.07;;;15.10;90.40;;;;;;5047069;28;21051;-84
2023/03/19 00:20:40;;;;;;;5.70;4.60;;;15.20;90.20;;;;;;5048028;28;20480;-83
2023/03/19 00:23:08;;;;;;;4.33;3.30;;;15.10;90.50;;;;;;5047859;28;20552;-83
2023/03/19 00:25:36;;;;;;;3.27;3.03;;;15.00;90.10;;;;;;5052455;28;20460;-83
2023/03/19 00:28:04;;;;;;;6.83;3.60;;;15.00;90.10;;;;;;5052474;28;20456;-82
2023/03/19 00:30:30;;;;;;;8.07;3.73;;;14.90;90.30;;;;;;5048654;28;20547;-83
2023/03/19 00:32:57;;;;;;;6.70;3.70;;;14.80;90.30;;;;;;5051646;28;20457;-81
2023/03/19 00:35:24;;;;;;;7.30;3.80;;;14.70;90.60;;;;;;5058204;28;20488;-82
2023/03/19 00:37:51;;;;;;;6.97;3.77;;;14.60;90.80;;;;;;5045021;28;20520;-81
2023/03/19 00:40:18;;;;;;;4.97;3.37;;;14.70;91.00;;;;;;5051738;28;20504;-84
2023/03/19 00:42:45;;;;;;;4.10;3.63;;;14.50;91.10;;;;;;5050533;28;21082;-83
2023/03/19 00:45:12;;;;;;;4.63;3.83;;;14.40;91.40;;;;;;5045788;28;20460;-83
2023/03/19 00:47:38;;;;;;;5.13;3.63;;;14.30;91.70;;;;;;5052256;28;20463;-83
2023/03/19 00:50:05;;;;;;;5.30;3.70;;;14.20;91.80;;;;;;5057299;28;20472;-81
2023/03/19 00:52:32;;;;;;;6.17;4.20;;;14.20;92.00;;;;;;5052960;28;20809;-83
2023/03/19 00:54:59;;;;;;;6.53;4.03;;;14.20;92.30;;;;;;5044459;28;20452;-82
2023/03/19 00:57:26;;;;;;;4.47;3.70;;;14.20;92.60;;;;;;5052946;28;20509;-80
2023/03/19 00:59:52;;;;;;;9.30;4.57;;;14.50;92.60;;;;;;5055829;28;20462;-83
2023/03/19 01:02:19;;;;;;;5.80;4.27;;;14.70;92.10;;;;;;5053492;28;20444;-82
2023/03/19 01:04:48;;;;;;;3.90;3.50;;;14.60;92.00;;;;;;5050177;28;20516;-83
2023/03/19 01:07:15;;;;;;;4.30;3.90;;;14.70;92.00;;;;;;5045437;28;20595;-82
2023/03/19 01:09:42;;;;;;;5.80;4.70;;;14.50;92.20;;;;;;5052491;28;20506;-81
2023/03/19 01:12:09;;;;;;;5.77;4.40;;;14.60;92.50;;;;;;5060595;28;20453;-82
2023/03/19 01:14:36;;;;;;;6.90;6.10;;;14.60;92.30;;;;;;5054118;28;20509;-83
2023/03/19 01:17:02;;;;;;;6.00;5.10;;;14.30;92.50;;;;;;5057448;28;20480;-83
2023/03/19 01:19:29;;;;;;;4.97;4.50;;;14.40;92.80;;;;;;5049792;28;20469;-82
2023/03/19 01:21:56;;;;;;;5.03;4.53;;;14.30;92.90;;;;;;5047437;28;20449;-83
2023/03/19 01:24:23;;;;;;;5.97;4.57;;;14.30;92.90;;;;;;5050688;28;20463;-81
2023/03/19 01:26:50;;;;;;;6.47;5.30;;;14.20;93.00;;;;;;5052366;28;20510;-83
2023/03/19 01:29:17;;;;;;;9.13;6.23;;;14.10;93.30;;;;;;5049917;28;20531;-82
2023/03/19 01:31:44;;;;;;;5.20;4.60;;;14.20;93.40;;;;;;5047674;28;20487;-83
2023/03/19 01:34:11;;;;;;;6.70;5.10;;;14.10;93.20;;;;;;5053442;28;20444;-82
2023/03/19 01:36:37;;;;;;;4.80;4.30;;;14.10;93.40;;;;;;5048717;28;20475;-83
2023/03/19 01:39:04;;;;;;;11.80;5.03;;;13.90;93.50;;;;;;5052167;28;20491;-83
2023/03/19 01:41:31;;;;;;;8.03;5.57;;;13.90;93.80;;;;;;5057055;28;20452;-84
2023/03/19 01:43:57;;;;;;;6.10;4.97;;;14.00;94.00;;;;;;5054630;28;20444;-84
2023/03/19 01:46:24;;;;;;;9.40;5.43;;;14.00;93.90;;;;;;5052513;28;20456;-83
2023/03/19 01:48:58;;;;;;;4.67;4.27;;;13.80;94.10;;;;;;5057665;28;20475;-84
2023/03/19 01:51:28;;;;;;;9.27;4.80;;;13.60;94.40;;;;;;5074077;28;20443;-83
2023/03/19 01:53:59;;;;;;;6.50;4.23;;;13.50;94.80;;;;;;5055771;28;20500;-82
2023/03/19 01:56:32;;;;;;;7.70;4.80;;;13.50;95.20;;;;;;5047769;28;20464;-83
2023/03/19 01:59:11;;;;;;;6.80;5.20;;;13.70;95.40;;;;;;5051873;28;20869;-83
2023/03/19 02:01:46;;;;;;;5.60;4.80;;;13.90;95.00;;;;;;5052076;28;20498;-83
2023/03/19 02:04:13;;;;;;;4.50;4.10;;;13.80;94.80;;;;;;5045045;28;20456;-81
2023/03/19 02:06:42;;;;;;;5.63;3.63;;;13.70;95.10;;;;;;5048710;28;20871;-83
2023/03/19 02:09:09;;;;;;;8.47;5.40;;;13.80;95.20;;;;;;5049990;28;20476;-83
2023/03/19 02:11:37;;;;;;;5.60;4.57;;;13.80;95.20;;;;;;5055360;28;20887;-82
2023/03/19 02:14:08;;;;;;;5.30;4.27;;;13.90;95.10;;;;;;5051682;28;20452;-83
2023/03/19 02:16:35;;;;;;;3.60;3.30;;;13.80;95.10;;;;;;5047120;28;20449;-83
2023/03/19 02:19:01;;;;;;;5.60;3.87;;;13.80;95.30;;;;;;5045174;28;20553;-85
2023/03/19 02:21:29;;;;;;;4.50;3.63;;;13.90;95.20;;;;;;5046920;28;20576;-83
2023/03/19 02:24:19;;;;;;;5.83;4.20;;;14.00;95.20;;;;;;5054783;28;20461;-83
2023/03/19 02:26:46;;;;;;;8.23;3.53;;;14.00;95.10;;;;;;5058097;28;20471;-83
2023/03/19 02:29:13;;;;;;;9.13;4.53;;;13.90;95.20;;;;;;5053446;28;20540;-83
2023/03/19 02:31:41;;;;;;;5.63;4.53;;;13.90;95.60;;;;;;5060310;28;20467;-83
2023/03/19 02:34:23;;;;;;;8.40;6.80;;;13.90;95.70;;;;;;5045511;28;20448;-83
2023/03/19 02:36:58;;;;;;;5.27;4.00;;;13.90;95.70;;;;;;5045927;28;21021;-82
2023/03/19 02:39:34;;;;;;;7.20;4.03;;;14.00;95.80;;;;;;5047830;28;20583;-83
2023/03/19 02:42:04;;;;;;;7.43;4.20;;;14.00;95.60;;;;;;5029819;28;20441;-83
2023/03/19 02:44:31;;;;;;;3.93;3.50;;;13.90;95.50;;;;;;5053866;28;20465;-83
2023/03/19 02:46:58;;;;;;;5.70;3.43;;;13.80;95.50;;;;;;5056030;28;20571;-84
2023/03/19 02:49:25;;;;;;;4.17;3.70;;;13.80;95.60;;;;;;5042519;28;20481;-83
2023/03/19 02:51:51;;;;;;;7.90;3.63;;;13.70;95.70;;;;;;5046080;28;20475;-84
2023/03/19 02:54:18;;;;;;;4.63;3.50;;;13.60;95.90;;;;;;5052949;28;20461;-82
2023/03/19 02:56:45;;;;;;;8.60;4.40;;;13.70;96.00;;;;;;5048415;28;21135;-82
2023/03/19 02:59:12;;;;;;;3.80;3.33;;;13.80;95.80;;;;;;5045755;28;21081;-84
2023/03/19 03:01:38;;;;;;;4.83;4.30;;;13.70;95.80;;;;;;5050691;28;20448;-84
2023/03/19 03:04:05;;;;;;;4.00;3.60;;;13.70;96.00;;;;;;5053980;28;20451;-84
2023/03/19 03:06:33;;;;;;;4.90;3.53;;;13.70;96.10;;;;;;5050352;28;20457;-83
2023/03/19 03:09:00;;;;;;;4.47;3.40;;;13.70;96.00;;;;;;5049605;28;20544;-82
2023/03/19 03:11:30;;;;;;;4.37;3.97;;;13.60;96.20;;;;;;5049093;28;20477;-84
2023/03/19 03:13:56;;;;;;;4.37;3.97;;;13.60;96.50;;;;;;5055194;28;20786;-83
2023/03/19 03:16:24;;;;;;;7.60;4.10;;;13.60;96.70;;;;;;5056084;28;20610;-82
2023/03/19 03:18:51;;;;;;;5.10;3.97;;;13.80;96.60;;;;;;5055230;28;20493;-81
2023/03/19 03:21:20;;;;;;;6.00;3.33;;;13.90;96.00;;;;;;5068214;28;20418;-84
2023/03/19 03:23:47;;;;;;;3.67;3.10;;;13.90;95.60;;;;;;5062460;28;20525;-83
2023/03/19 03:26:14;;;;;;;5.43;3.20;;;13.90;95.60;;;;;;5061789;28;20515;-84
2023/03/19 03:28:41;;;;;;;5.60;3.40;;;13.80;95.80;;;;;;5069792;28;20485;-83
2023/03/19 03:31:07;;;;;;;6.03;3.07;;;13.90;95.70;;;;;;5058597;28;20459;-84
2023/03/19 03:33:35;;;;;;;3.00;2.80;;;13.90;95.60;;;;;;5057697;28;20460;-83
2023/03/19 03:36:02;;;;;;;3.37;2.70;;;13.80;95.60;;;;;;5061320;28;20453;-84
2023/03/19 03:38:31;;;;;;;3.17;2.87;;;13.70;95.80;;;;;;5050201;28;20540;-84
2023/03/19 03:40:58;;;;;;;3.77;3.10;;;13.60;95.90;;;;;;5056582;28;20459;-84
2023/03/19 03:43:25;;;;;;;2.80;1.87;;;13.60;96.10;;;;;;5056783;28;20475;-82
2023/03/19 03:45:52;;;;;;;2.87;2.67;;;13.80;95.80;;;;;;5060955;28;20457;-83
2023/03/19 03:48:19;;;;;;;8.70;3.87;;;13.80;95.60;;;;;;5049154;28;20542;-82
2023/03/19 03:50:46;;;;;;;3.67;2.60;;;13.90;95.60;;;;;;5045633;28;20481;-82
2023/03/19 03:53:13;;;;;;;6.87;2.90;;;13.70;95.40;;;;;;5055106;28;20468;-82
2023/03/19 03:55:40;;;;;;;4.30;2.60;;;13.70;95.70;;;;;;5052854;28;20538;-82
2023/03/19 03:58:07;;;;;;;4.00;3.00;;;13.80;95.70;;;;;;5048202;28;20472;-82
2023/03/19 04:00:33;;;;;;;6.00;2.97;;;13.90;95.40;;;;;;5054370;28;20473;-82
2023/03/19 04:03:03;;;;;;;3.00;2.00;;;13.90;95.00;;;;;;5044712;28;20457;-81
2023/03/19 04:05:29;;;;;;;2.93;2.30;;;14.00;94.90;;;;;;5050118;28;20516;-82
2023/03/19 04:07:57;;;;;;;4.27;2.43;;;14.00;94.90;;;;;;5044630;28;20548;-82
2023/03/19 04:10:24;;;;;;;4.20;2.00;;;13.80;94.90;;;;;;5052691;28;20464;-84
2023/03/19 04:12:50;;;;;;;2.30;1.80;;;13.80;95.30;;;;;;5047064;28;20447;-83
2023/03/19 04:15:17;;;;;;;6.40;2.50;;;13.80;95.10;;;;;;5051291;28;20495;-83
2023/03/19 04:17:45;;;;;;;3.00;2.30;;;13.70;95.50;;;;;;5052383;28;20484;-83
2023/03/19 04:20:12;;;;;;;5.80;2.77;;;14.00;95.20;;;;;;5052276;28;20465;-83
2023/03/19 04:22:39;;;;;;;5.37;2.60;;;14.00;94.80;;;;;;5050406;28;20468;-83
2023/03/19 04:25:07;;;;;;;3.90;2.83;;;13.90;94.90;;;;;;5053889;28;20498;-83
2023/03/19 04:27:34;;;;;;;7.30;2.97;;;13.90;95.00;;;;;;5043061;28;20457;-83
2023/03/19 04:30:00;;;;;;;4.07;2.77;;;13.90;95.10;;;;;;5053505;28;20476;-83
2023/03/19 04:32:27;;;;;;;7.20;3.20;;;13.80;95.10;;;;;;5047249;28;20474;-83
2023/03/19 04:34:55;;;;;;;4.93;2.73;;;13.80;95.10;;;;;;5052846;28;20450;-83
2023/03/19 04:37:21;;;;;;;3.73;2.47;;;13.80;95.10;;;;;;5064547;28;20551;-84
2023/03/19 04:39:48;;;;;;;2.33;2.13;;;13.80;95.10;;;;;;5046661;28;20480;-82
2023/03/19 04:42:15;;;;;;;2.83;2.60;;;13.70;95.30;;;;;;5044201;28;20444;-82
2023/03/19 04:44:41;;;;;;;4.50;2.30;;;13.70;95.40;;;;;;5040035;28;20445;-82
2023/03/19 04:47:09;;;;;;;4.10;2.50;;;13.70;95.50;;;;;;5042087;28;21046;-82
2023/03/19 04:49:35;;;;;;;3.13;2.20;;;13.70;95.60;;;;;;5047014;28;20986;-82
2023/03/19 04:52:02;;;;;;;4.00;1.60;;;13.50;95.60;;;;;;5044903;28;20448;-84
2023/03/19 04:54:29;;;;;;;3.63;2.60;;;13.60;95.80;;;;;;5045596;28;20456;-83
2023/03/19 04:56:56;;;;;;;5.13;2.27;;;13.70;95.60;;;;;;5048592;28;21169;-83
2023/03/19 04:59:22;;;;;;;2.07;1.93;;;13.70;95.70;;;;;;5053363;28;20905;-83
2023/03/19 05:01:49;;;;;;;2.13;1.87;;;13.60;95.60;;;;;;5055101;28;20448;-82
2023/03/19 05:04:16;;;;;;;1.93;1.80;;;13.60;95.80;;;;;;5058033;28;20477;-83
2023/03/19 05:06:43;;;;;;;2.63;2.33;;;13.60;95.70;;;;;;5047318;28;20917;-83
2023/03/19 05:09:10;;;;;;;3.37;2.80;;;13.70;95.80;;;;;;5059858;28;20467;-84
2023/03/19 05:11:37;;;;;;;2.33;2.13;;;13.80;95.60;;;;;;5052754;28;20461;-84
2023/03/19 05:14:04;;;;;;;2.93;2.10;;;13.90;95.20;;;;;;5061102;28;20805;-82
2023/03/19 05:16:31;;;;;;;2.10;1.90;;;13.90;95.20;;;;;;5055809;28;20440;-84
2023/03/19 05:18:58;;;;;;;3.77;2.20;;;13.80;95.30;;;;;;5054038;28;20510;-84
2023/03/19 05:21:25;;;;;;;4.80;3.40;;;13.70;95.60;;;;;;5065892;28;20441;-83
2023/03/19 05:23:53;;;;;;;2.50;2.23;;;13.80;95.80;;;;;;5051083;28;20464;-83
2023/03/19 05:26:20;;;;;;;3.47;2.87;;;13.80;95.60;;;;;;5058797;28;20444;-84
2023/03/19 05:28:47;;;;;;;3.50;2.53;;;13.60;95.70;;;;;;5046151;28;21142;-83
2023/03/19 05:31:14;;;;;;;3.40;2.93;;;13.60;96.00;;;;;;5060143;28;20482;-84
2023/03/19 05:33:40;;;;;;;4.70;2.67;;;13.50;96.00;;;;;;5054464;28;20481;-84
2023/03/19 05:36:08;;;;;;;3.50;2.53;;;13.60;96.20;;;;;;5069431;28;20442;-83
2023/03/19 05:38:34;;;;;;;2.57;2.37;;;13.60;96.10;;;;;;5071270;28;20464;-83
2023/03/19 05:41:05;;;;;;;3.93;2.47;;;13.60;96.00;;;;;;5078318;28;20453;-82
2023/03/19 05:43:32;;;;;;;2.93;2.40;;;13.40;96.10;;;;;;5074342;28;20452;-83
2023/03/19 05:45:59;;;;;;;2.80;2.60;;;13.40;96.40;;;;;;5066423;28;20457;-83
2023/03/19 05:48:26;;;;;;;2.03;1.90;;;13.50;96.50;;;;;;5066324;28;20440;-83
2023/03/19 05:50:52;;;;;;;3.23;2.03;;;13.40;96.40;;;;;;5074455;28;20499;-83
2023/03/19 05:53:20;;;;;;;2.23;2.03;;;13.50;96.20;;;;;;5077595;28;20478;-84
2023/03/19 05:55:47;;;;;;;2.27;2.00;;;13.40;96.50;;;;;;5068882;28;20463;-84
2023/03/19 05:58:15;;;;;;;4.00;2.63;;;13.30;96.60;;;;;;5070868;28;20473;-84
2023/03/19 06:00:42;;;;;;;3.10;2.00;;;13.30;96.50;;;;;;5058173;28;21067;-83
2023/03/19 06:03:09;;;;;;;1.77;1.67;;;13.40;96.60;;;;;;5054694;28;20460;-83
2023/03/19 06:05:36;;;;;;;2.40;2.20;;;13.30;96.40;;;;;;5049418;28;20504;-83
2023/03/19 06:08:03;;;;;;;1.87;1.70;;;13.30;96.50;;;;;;5044468;28;20503;-83
2023/03/19 06:10:30;;;;;;;2.20;2.00;;;13.30;96.80;;;;;;5049604;28;20473;-84
2023/03/19 06:12:56;;;;;;;3.43;1.87;;;13.30;96.70;;;;;;5049482;28;20483;-83
2023/03/19 06:15:23;;;;;;;3.47;1.70;;;13.50;96.80;;;;;;5053586;28;20453;-83
2023/03/19 06:17:50;;;;;;;2.67;2.00;;;13.60;96.50;;;;;;5043846;28;20480;-85
2023/03/19 06:20:17;;;;;;;4.37;2.30;;;13.70;96.20;;;;;;5050845;28;20472;-82
2023/03/19 06:22:44;;;;;;;2.20;2.00;;;13.50;96.10;;;;;;5053944;28;20448;-84
2023/03/19 06:25:11;;;;;;;2.20;1.50;;;13.50;96.50;;;;;;5060179;28;20452;-84
2023/03/19 06:27:39;;;;;;;3.03;2.20;;;13.70;96.30;;;;;;5063894;28;20963;-82
2023/03/19 06:30:06;;;;;;;2.30;1.70;;;13.80;96.20;;;;;;5053615;28;20464;-81
2023/03/19 06:32:32;;;;;;;1.70;1.60;;;13.80;95.80;;;;;;5056223;28;20479;-82
2023/03/19 06:34:59;;;;;;;1.80;1.70;;;13.60;96.00;;;;;;5065847;28;20444;-82
2023/03/19 06:37:26;;;;;;;2.77;1.80;;;13.70;96.20;;;;;;5061289;28;20449;-84
2023/03/19 06:39:56;;;;;;;1.77;1.67;;;13.70;96.10;;;;;;5033800;28;20853;-82
2023/03/19 06:42:22;;;;;;;1.90;1.60;;;13.70;96.20;;;;;;5071458;28;20448;-83
2023/03/19 06:44:49;;;;;;;1.73;1.50;;;13.70;96.10;;;;;;5060636;28;20500;-82
2023/03/19 06:47:19;;;;;;;1.60;1.50;;;13.70;96.10;;;;;;5065405;28;20508;-83
2023/03/19 06:49:45;;;;;;;1.50;1.37;;;13.60;96.30;;;;;;5061128;28;20469;-83
2023/03/19 06:52:12;;;;;;;1.83;1.60;;;13.70;96.20;;;;;;5067383;28;20442;-83
2023/03/19 06:54:39;;;;;;;1.50;1.40;;;13.70;96.40;;;;;;5072730;28;20465;-83
2023/03/19 06:57:05;;;;;;;3.20;3.00;;;13.70;96.50;;;;;;5054002;28;20473;-83
2023/03/19 06:59:32;;;;;;;1.10;1.10;;;13.70;96.40;;;;;;5057628;28;20805;-83
2023/03/19 07:01:59;;;;;;;2.63;1.50;;;13.70;96.60;;;;;;5059269;28;20444;-83
2023/03/19 07:04:25;;;;;;;2.30;1.50;;;13.70;96.50;;;;;;5054784;28;20434;-82
2023/03/19 07:06:52;;;;;;;1.60;1.50;;;13.70;96.50;;;;;;5061791;28;20446;-81
2023/03/19 07:09:19;;;;;;;2.53;1.60;;;13.60;96.60;;;;;;5107149;22;20515;-82
2023/03/19 07:11:46;;;;;;;1.13;1.03;;;13.70;96.70;;;;;;5060915;28;20457;-82
2023/03/19 07:14:13;;;;;;;1.40;1.10;;;13.70;96.50;;;;;;5051907;28;20453;-81
2023/03/19 07:16:39;;;;;;;1.40;1.30;;;13.70;96.60;;;;;;5052817;28;20548;-81
2023/03/19 07:19:06;;;;;;;1.80;1.40;;;13.70;96.50;;;;;;5052971;28;20515;-83
2023/03/19 07:21:33;;;;;;;1.40;1.13;;;13.70;96.60;;;;;;5049365;28;20442;-83
2023/03/19 07:24:00;;;;;;;2.20;1.10;;;13.60;96.80;;;;;;5051488;28;20462;-83
2023/03/19 07:26:27;;;;;;;1.80;1.70;;;13.80;96.70;;;;;;5062236;28;20467;-83
2023/03/19 07:28:55;;;;;;;1.97;1.70;;;13.80;96.60;;;;;;5066880;28;20462;-84
2023/03/19 07:31:24;;;;;;;1.50;1.33;;;13.70;96.60;;;;;;5055068;28;20469;-82
2023/03/19 07:33:53;;;;;;;1.00;1.00;;;13.80;96.50;;;;;;5050739;28;20480;-82
2023/03/19 07:36:20;;;;;;;1.30;1.20;;;13.70;96.70;;;;;;5043403;28;20441;-82
2023/03/19 07:38:47;;;;;;;1.30;1.20;;;13.80;96.90;;;;;;5040862;28;20495;-82
2023/03/19 07:41:14;;;;;;;1.40;1.30;;;13.70;96.70;;;;;;5025533;28;20444;-82
2023/03/19 07:43:41;;;;;;;1.70;1.37;;;13.70;96.80;;;;;;5031537;28;20450;-83
2023/03/19 07:46:07;;;;;;;2.70;2.00;;;13.80;96.80;;;;;;5033025;28;20433;-83
2023/03/19 07:48:34;;;;;;;1.50;1.40;;;13.80;96.70;;;;;;5035568;28;20505;-82
2023/03/19 07:51:01;;;;;;;2.17;1.40;;;13.70;97.00;;;;;;5031501;28;20453;-83
2023/03/19 07:53:28;;;;;;;1.37;1.27;;;13.90;96.90;;;;;;5033199;28;21034;-83
2023/03/19 07:55:55;;;;;;;1.47;1.40;;;14.00;96.70;;;;;;5027627;28;20459;-82
2023/03/19 07:58:22;;;;;;;1.33;1.17;;;14.10;96.40;;;;;;5031541;28;20492;-82
2023/03/19 08:00:51;;;;;;;1.70;1.60;;;14.20;96.40;;;;;;5037580;28;20537;-83
2023/03/19 08:03:24;;;;;;;1.80;1.40;;;14.30;96.20;;;;;;5053860;28;20463;-83
2023/03/19 08:05:51;;;;;;;1.67;1.50;;;14.60;95.80;;;;;;5054500;28;20437;-84
2023/03/19 08:08:25;;;;;;;2.40;1.60;;;14.40;95.60;;;;;;5064741;28;20457;-84
2023/03/19 08:10:55;;;;;;;1.70;1.60;;;14.50;95.90;;;;;;5056764;28;20469;-83
2023/03/19 08:13:28;;;;;;;1.53;1.40;;;14.50;95.80;;;;;;5058587;28;20441;-84
2023/03/19 08:15:58;;;;;;;4.33;1.53;;;14.60;95.80;;;;;;5045717;28;20457;-83
2023/03/19 08:18:31;;;;;;;1.50;1.40;;;14.70;95.70;;;;;;5041663;28;21012;-83
2023/03/19 08:21:00;;;;;;;1.70;1.60;;;14.50;95.40;;;;;;5047256;28;20465;-83
2023/03/19 08:23:34;;;;;;;1.63;1.53;;;14.60;95.60;;;;;;5032367;28;20461;-82
2023/03/19 08:26:03;;;;;;;5.93;1.70;;;14.70;95.50;;;;;;5028051;28;20453;-83
2023/03/19 08:28:36;;;;;;;1.90;1.60;;;14.70;95.30;;;;;;5041287;28;20480;-83
2023/03/19 08:31:11;;;;;;;2.10;1.90;;;14.80;95.60;;;;;;5031856;28;20541;-82
2023/03/19 08:33:40;;;;;;;5.17;1.70;;;15.20;95.50;;;;;;5025448;28;20457;-83
2023/03/19 08:36:09;;;;;;;1.90;1.80;;;15.10;95.10;;;;;;5026568;28;20453;-83
2023/03/19 08:38:36;;;;;;;2.10;1.77;;;15.40;94.80;;;;;;5034421;28;20474;-83
2023/03/19 08:41:05;;;;;;;2.17;2.00;;;15.60;94.40;;;;;;5033043;28;20437;-83
2023/03/19 08:43:33;;;;;;;4.70;2.50;;;15.50;94.30;;;;;;5030999;28;20552;-85
2023/03/19 08:46:00;;;;;;;3.43;2.27;;;15.40;94.30;;;;;;5033130;28;20445;-83
2023/03/19 08:48:28;;;;;;;1.97;1.87;;;15.30;94.60;;;;;;5037878;28;20835;-84
2023/03/19 08:50:58;;;;;;;2.60;2.00;;;15.20;95.00;;;;;;5024977;28;20992;-83
2023/03/19 08:53:24;;;;;;;2.53;1.90;;;15.10;94.90;;;;;;5039343;28;20579;-83
2023/03/19 08:55:53;;;;;;;2.40;2.20;;;15.10;95.40;;;;;;5051332;28;20973;-84
2023/03/19 08:58:20;;;;;;;2.47;2.27;;;15.30;95.20;;;;;;5051213;28;20441;-84
2023/03/19 09:00:47;;;;;;;5.10;2.30;;;15.40;95.00;;;;;;5042728;28;20468;-85
2023/03/19 09:03:15;;;;;;;2.23;2.00;;;15.60;94.90;;;;;;5050923;28;20455;-83
2023/03/19 09:05:42;;;;;;;2.00;1.90;;;15.60;94.80;;;;;;5047429;28;20461;-83
2023/03/19 09:08:09;;;;;;;2.60;2.40;;;16.00;94.40;;;;;;5034370;28;20454;-84
2023/03/19 09:10:36;;;;;;;2.63;2.43;;;15.80;94.30;;;;;;5030149;28;21062;-83
2023/03/19 09:13:03;;;;;;;2.13;1.93;;;15.60;94.60;;;;;;5049978;28;20449;-84
2023/03/19 09:15:30;;;;;;;2.50;2.30;;;15.90;94.90;;;;;;5039150;28;20443;-84
2023/03/19 09:17:57;;;;;;;2.17;2.07;;;16.40;94.00;;;;;;5037653;28;20465;-82
2023/03/19 09:20:23;;;;;;;2.40;1.87;;;16.40;93.40;;;;;;5036051;28;20478;-82
2023/03/19 09:22:50;;;;;;;2.43;2.23;;;16.20;93.50;;;;;;5035531;28;20450;-83
2023/03/19 09:25:17;;;;;;;2.70;2.47;;;16.00;94.10;;;;;;5040486;28;20463;-84
2023/03/19 09:27:43;;;;;;;2.80;2.60;;;16.30;93.80;;;;;;5037015;28;20461;-84
2023/03/19 09:30:11;;;;;;;2.20;2.00;;;16.20;93.70;;;;;;5035642;28;20472;-83
2023/03/19 09:32:37;;;;;;;2.50;2.30;;;15.90;94.00;;;;;;5037552;28;20491;-84
2023/03/19 09:35:05;;;;;;;2.27;1.90;;;15.70;94.40;;;;;;5037522;28;20940;-81
2023/03/19 09:37:31;;;;;;;2.50;2.30;;;15.70;94.70;;;;;;5027694;28;20485;-82
2023/03/19 09:39:58;;;;;;;2.90;2.60;;;15.80;94.50;;;;;;5028307;28;20782;-85
2023/03/19 09:43:01;;;;;;;2.80;2.43;;;15.90;94.30;;;;;;5054546;28;20449;-82
2023/03/19 09:45:31;;;;;;;2.67;2.47;;;15.60;94.50;;;;;;5031274;28;20479;-85
2023/03/19 09:48:11;;;;;;;2.43;2.30;;;15.60;94.70;;;;;;5039921;28;20855;-83
2023/03/19 09:50:38;;;;;;;3.63;2.80;;;15.60;94.80;;;;;;5037708;28;20498;-83
2023/03/19 09:53:14;;;;;;;3.47;2.60;;;15.50;95.10;;;;;;5041823;28;20468;-82
2023/03/19 09:55:47;;;;;;;2.60;2.40;;;15.60;95.00;;;;;;5039435;28;20456;-82
2023/03/19 09:58:17;;;;;;;4.80;3.00;;;15.50;95.20;;;;;;5036337;28;20446;-82
2023/03/19 10:00:51;;;;;;;4.70;3.03;;;15.60;95.20;;;;;;5037528;28;20473;-81
2023/03/19 10:03:42;;;;;;;5.10;2.77;;;15.50;95.30;;;;;;5035547;28;20476;-82
2023/03/19 10:06:31;;;;;;;7.67;2.53;;;15.50;95.50;;;;;;5037915;28;20440;-84
2023/03/19 10:09:24;;;;;;;2.63;2.40;;;15.50;95.40;;;;;;5040547;28;20489;-85
2023/03/19 10:12:22;;;;;;;2.63;2.43;;;15.60;95.30;;;;;;5039233;28;20515;-83
2023/03/19 10:15:17;;;;;;;2.53;2.33;;;15.70;95.40;;;;;;5033153;28;20464;-85
2023/03/19 10:17:55;;;;;;;2.20;2.00;;;15.60;95.00;;;;;;5038775;28;20453;-84
2023/03/19 10:20:44;;;;;;;2.67;2.47;;;15.70;94.70;;;;;;5035912;28;20547;-83
2023/03/19 10:23:32;;;;;;;3.87;2.57;;;15.70;94.80;;;;;;5062184;28;20437;-80
2023/03/19 10:26:02;;;;;;;2.90;2.40;;;15.60;95.00;;;;;;5037918;28;20983;-82
2023/03/19 10:28:29;;;;;;;2.37;2.17;;;15.50;95.20;;;;;;5036604;28;20450;-84
2023/03/19 10:31:36;;;;;;;2.40;2.23;;;15.50;95.50;;;;;;5034609;28;21111;-83
2023/03/19 10:34:24;;;;;;;2.50;2.30;;;15.40;95.20;;;;;;5042262;28;20433;-82
2023/03/19 10:37:02;;;;;;;2.50;2.23;;;15.20;95.30;;;;;;5041874;28;20468;-82
2023/03/19 10:39:35;;;;;;;3.03;2.40;;;15.10;95.80;;;;;;5033826;28;20564;-83
2023/03/19 10:42:32;;;;;;;2.70;2.50;;;15.00;96.10;;;;;;5038421;28;20441;-83
2023/03/19 10:45:28;;;;;;;2.43;2.00;;;15.10;96.00;;;;;;5037295;28;20449;-84
2023/03/19 10:47:55;;;;;;;2.00;1.90;;;15.20;96.00;;;;;;5031205;28;20474;-83
2023/03/19 10:50:53;;;;;;;2.63;2.43;;;15.20;95.90;;;;;;5037656;28;20475;-84
2023/03/19 10:53:33;;;;;;;2.43;2.27;;;15.30;95.80;;;;;;5048072;28;20441;-84
2023/03/19 10:56:03;;;;;;;2.57;2.40;;;15.40;95.60;;;;;;5054115;28;20441;-84
2023/03/19 10:58:33;;;;;;;3.40;2.27;;;15.50;95.30;;;;;;5049235;28;20446;-84
2023/03/19 11:01:09;;;;;;;3.63;2.30;;;15.50;95.20;;;;;;5047726;28;20473;-83
2023/03/19 11:03:50;;;;;;;3.57;2.53;;;15.40;95.30;;;;;;5035904;28;20466;-82
2023/03/19 11:06:24;;;;;;;2.17;2.07;;;15.50;95.50;;;;;;5054385;28;20441;-83
2023/03/19 11:09:09;;;;;;;2.53;2.33;;;15.80;95.60;;;;;;5049850;28;20464;-82
2023/03/19 11:11:46;;;;;;;2.83;2.63;;;15.80;95.20;;;;;;5046633;28;20456;-83
2023/03/19 11:14:19;;;;;;;2.80;2.60;;;16.10;95.00;;;;;;5037283;28;20866;-82
2023/03/19 11:17:07;;;;;;;2.87;2.60;;;16.20;94.90;;;;;;5032862;28;20457;-83
2023/03/19 11:19:40;;;;;;;2.60;2.40;;;16.20;94.70;;;;;;5038385;28;20481;-83
2023/03/19 11:22:08;;;;;;;2.90;2.63;;;16.00;94.80;;;;;;5042461;28;20445;-85
2023/03/19 11:24:40;;;;;;;2.80;2.60;;;16.20;94.40;;;;;;5042255;28;20507;-82
2023/03/19 11:27:08;;;;;;;2.80;2.60;;;16.10;94.40;;;;;;5037546;28;20475;-84
2023/03/19 11:29:43;;;;;;;6.33;3.40;;;16.20;94.60;;;;;;5034124;28;20482;-83
2023/03/19 11:32:56;;;;;;;3.20;3.00;;;16.20;94.70;;;;;;5036832;28;20507;-84
2023/03/19 11:35:31;;;;;;;4.37;3.07;;;16.30;94.40;;;;;;5000249;28;20642;-85
2023/03/19 11:38:01;;;;;;;3.60;2.80;;;16.30;95.00;;;;;;5043938;28;20455;-85
2023/03/19 11:40:40;;;;;;;3.17;2.97;;;16.70;94.90;;;;;;5052117;28;20794;-84
2023/03/19 11:43:28;;;;;;;3.47;2.37;;;17.40;93.90;;;;;;5055096;28;20452;-85
2023/03/19 11:46:01;;;;;;;3.07;2.83;;;17.70;93.00;;;;;;5046145;28;21081;-83
2023/03/19 11:48:28;;;;;;;3.87;2.90;;;17.60;92.50;;;;;;5038785;28;20452;-83
2023/03/19 11:51:03;;;;;;;2.70;2.50;;;17.30;92.60;;;;;;5043429;28;20486;-83
2023/03/19 11:53:37;;;;;;;2.97;2.77;;;16.90;93.40;;;;;;5052196;28;20480;-83
2023/03/19 11:56:16;;;;;;;3.20;2.67;;;16.60;94.10;;;;;;5047105;28;20539;-82
2023/03/19 11:58:43;;;;;;;2.63;2.43;;;16.60;94.40;;;;;;5025931;28;20602;-82
2023/03/19 12:01:42;;;;;;;3.03;2.83;;;16.50;94.60;;;;;;5041701;28;20492;-82
2023/03/19 12:04:24;;;;;;;2.40;2.30;;;16.40;95.40;;;;;;5031901;28;20465;-83
2023/03/19 12:07:37;;;;;;;4.47;3.27;;;17.00;94.80;;;;;;5044090;28;20452;-81
2023/03/19 12:10:41;;;;;;;2.80;2.60;;;16.90;94.20;;;;;;5025664;28;20485;-83
2023/03/19 12:13:30;;;;;;;3.13;2.80;;;17.10;94.10;;;;;;5031094;28;20461;-83
2023/03/19 12:16:16;;;;;;;2.70;2.57;;;17.00;94.30;;;;;;5025336;28;20437;-84
2023/03/19 12:18:59;;;;;;;3.00;2.70;;;17.00;95.10;;;;;;5030675;28;20503;-83
2023/03/19 12:21:52;;;;;;;2.27;2.17;;;17.80;93.80;;;;;;5031749;28;20568;-83
2023/03/19 12:24:44;;;;;;;2.37;2.23;;;18.00;92.90;;;;;;5032571;28;20455;-82
2023/03/19 12:27:24;;;;;;;1.97;1.87;;;17.80;93.00;;;;;;5037356;28;20455;-83
2023/03/19 12:30:02;;;;;;;3.07;2.70;;;17.20;93.20;;;;;;5030034;28;20533;-83
2023/03/19 12:32:56;;;;;;;2.40;2.20;;;17.10;93.90;;;;;;5037361;28;20455;-83
2023/03/19 12:35:46;;;;;;;2.60;2.40;;;17.00;93.90;;;;;;5025438;28;20454;-83
2023/03/19 12:38:26;;;;;;;2.60;2.40;;;17.20;93.60;;;;;;5024979;28;20454;-83
2023/03/19 12:41:06;;;;;;;2.10;2.00;;;17.00;93.70;;;;;;5028713;28;20488;-84
2023/03/19 12:43:54;;;;;;;2.70;2.50;;;17.00;94.50;;;;;;5019987;28;20446;-85
2023/03/19 12:46:36;;;;;;;2.73;2.53;;;17.30;93.80;;;;;;5033950;28;20473;-84
2023/03/19 12:49:20;;;;;;;1.90;1.80;;;17.60;93.40;;;;;;5030764;28;20472;-83
2023/03/19 12:52:06;;;;;;;3.43;2.00;;;17.50;93.10;;;;;;5044876;28;20959;-82
2023/03/19 12:54:38;;;;;;;3.20;2.33;;;17.80;92.70;;;;;;5038279;28;20492;-83
2023/03/19 12:57:17;;;;;;;2.70;2.30;;;17.40;92.80;;;;;;5034621;28;20449;-84
2023/03/19 12:59:49;;;;;;;2.20;2.00;;;17.30;92.80;;;;;;5028369;28;20485;-83
2023/03/19 13:02:34;;;;;;;2.70;2.20;;;17.20;92.70;;;;;;5036500;28;20462;-84
2023/03/19 13:05:29;;;;;;;1.90;1.80;;;17.10;92.60;;;;;;5040518;28;20464;-83
2023/03/19 13:08:12;;;;;;;2.20;2.10;;;16.80;92.60;;;;;;5044514;28;20450;-85